createdAt,value
2023-04-11T00:00:43.190Z,59.89
2023-04-11T00:03:12.640Z,59.75
2023-04-11T00:05:41.257Z,59.72
2023-04-11T00:08:10.171Z,59.74
2023-04-11T00:10:43.172Z,59.71
2023-04-11T00:13:12.365Z,59.67
2023-04-11T00:15:41.870Z,59.59
2023-04-11T00:18:12.683Z,59.55
2023-04-11T00:20:40.834Z,59.60
2023-04-11T00:23:09.137Z,59.86
2023-04-11T00:25:37.525Z,59.69
2023-04-11T00:28:05.907Z,59.71
2023-04-11T00:30:34.262Z,59.71
2023-04-11T00:33:04.154Z,59.58
2023-04-11T00:35:35.237Z,59.36
2023-04-11T00:38:04.074Z,59.17
2023-04-11T00:40:32.830Z,59.22
2023-04-11T00:43:20.923Z,59.18
2023-04-11T00:45:49.058Z,59.27
2023-04-11T00:48:17.292Z,59.34
2023-04-11T00:50:47.635Z,59.58
2023-04-11T00:53:17.755Z,59.66
2023-04-11T00:55:45.927Z,59.74
2023-04-11T00:58:16.902Z,59.76
2023-04-11T01:00:45.075Z,59.69
2023-04-11T01:03:14.637Z,59.71
2023-04-11T01:05:43.276Z,59.81
2023-04-11T01:08:12.141Z,59.95
2023-04-11T01:10:41.702Z,60.02
2023-04-11T01:13:09.792Z,60.02
2023-04-11T01:15:48.635Z,60.06
2023-04-11T01:18:18.872Z,60.12
2023-04-11T01:20:47.235Z,60.21
2023-04-11T01:23:26.262Z,60.34
2023-04-11T01:25:54.416Z,60.40
2023-04-11T01:28:23.338Z,60.31
2023-04-11T01:30:52.351Z,60.30
2023-04-11T01:33:21.423Z,60.22
2023-04-11T01:35:49.865Z,60.13
2023-04-11T01:38:23.317Z,60.27
2023-04-11T01:40:52.448Z,60.24
2023-04-11T01:43:21.091Z,60.18
2023-04-11T01:45:52.322Z,60.26
2023-04-11T01:48:20.907Z,60.30
2023-04-11T01:50:51.129Z,60.34
2023-04-11T01:53:19.508Z,60.24
2023-04-11T01:55:47.648Z,60.07
2023-04-11T01:58:16.576Z,59.88
2023-04-11T02:00:45.059Z,59.62
2023-04-11T02:03:13.985Z,59.49
2023-04-11T02:05:43.493Z,59.50
2023-04-11T02:08:28.533Z,59.43
2023-04-11T02:10:57.414Z,59.41
2023-04-11T02:13:25.898Z,59.34
2023-04-11T02:15:54.251Z,59.33
2023-04-11T02:18:24.495Z,59.56
2023-04-11T02:20:53.353Z,59.70
2023-04-11T02:23:24.309Z,59.78
2023-04-11T02:25:52.909Z,59.82
2023-04-11T02:28:21.395Z,59.71
2023-04-11T02:30:51.387Z,59.52
2023-04-11T02:33:20.411Z,59.33
2023-04-11T02:35:48.600Z,59.21
2023-04-11T02:38:17.876Z,59.13
2023-04-11T02:40:47.490Z,58.85
2023-04-11T02:43:19.042Z,58.63
2023-04-11T02:45:47.426Z,58.53
2023-04-11T02:48:16.419Z,58.64
2023-04-11T02:50:49.610Z,58.74
2023-04-11T02:53:18.906Z,58.86
2023-04-11T02:55:49.607Z,58.80
2023-04-11T02:58:20.246Z,58.74
2023-04-11T03:00:49.586Z,58.57
2023-04-11T03:03:26.549Z,58.36
2023-04-11T03:05:57.199Z,58.30
2023-04-11T03:08:26.056Z,58.25
2023-04-11T03:10:57.126Z,58.09
2023-04-11T03:13:26.640Z,58.14
2023-04-11T03:15:55.214Z,58.00
2023-04-11T03:18:27.067Z,57.85
2023-04-11T03:20:56.298Z,57.84
2023-04-11T03:23:27.870Z,57.79
2023-04-11T03:25:56.724Z,57.81
2023-04-11T03:28:25.300Z,57.89
2023-04-11T03:30:54.622Z,57.83
2023-04-11T03:33:24.213Z,57.73
2023-04-11T03:35:52.540Z,57.52
2023-04-11T03:38:21.336Z,57.21
2023-04-11T03:40:49.651Z,56.84
2023-04-11T03:43:20.599Z,56.82
2023-04-11T03:45:49.061Z,56.81
2023-04-11T03:48:26.607Z,56.44
2023-04-11T03:50:59.213Z,56.42
2023-04-11T03:53:37.968Z,56.27
2023-04-11T03:56:19.351Z,56.13
2023-04-11T03:58:47.645Z,55.87
2023-04-11T04:01:17.130Z,55.69
2023-04-11T04:03:47.379Z,55.61
2023-04-11T04:06:16.148Z,55.47
2023-04-11T04:08:44.838Z,55.59
2023-04-11T04:11:13.723Z,55.26
2023-04-11T04:13:41.995Z,54.91
2023-04-11T04:16:13.090Z,54.47
2023-04-11T04:18:43.146Z,54.38
2023-04-11T04:21:12.254Z,54.44
2023-04-11T04:23:47.542Z,54.37
2023-04-11T04:26:39.439Z,54.41
2023-04-11T04:29:23.930Z,54.07
2023-04-11T04:31:57.151Z,54.12
2023-04-11T04:34:33.339Z,54.10
2023-04-11T04:37:02.114Z,54.14
2023-04-11T04:39:42.186Z,53.84
2023-04-11T04:42:11.278Z,53.93
2023-04-11T04:45:01.078Z,54.01
2023-04-11T04:47:33.235Z,53.75
2023-04-11T04:50:01.495Z,53.68
2023-04-11T04:52:30.799Z,53.41
2023-04-11T04:55:00.193Z,53.33
2023-04-11T04:57:29.315Z,53.51
2023-04-11T04:59:57.684Z,53.45
2023-04-11T05:02:27.106Z,52.93
2023-04-11T05:04:56.590Z,53.05
2023-04-11T05:07:26.627Z,52.04
2023-04-11T05:10:00.827Z,51.56
2023-04-11T05:12:31.044Z,51.54
2023-04-11T05:15:04.545Z,51.44
2023-04-11T05:17:35.065Z,50.84
2023-04-11T05:20:06.535Z,50.66
2023-04-11T05:22:34.880Z,50.58
2023-04-11T05:25:06.003Z,50.57
2023-04-11T05:27:34.941Z,50.46
2023-04-11T05:30:03.736Z,50.27
2023-04-11T05:32:38.538Z,50.32
2023-04-11T05:35:07.943Z,50.19
2023-04-11T05:37:58.354Z,50.04
2023-04-11T05:40:26.915Z,49.84
2023-04-11T05:42:54.895Z,49.66
2023-04-11T05:45:24.519Z,49.72
2023-04-11T05:47:52.830Z,49.72
2023-04-11T05:50:28.653Z,49.71
2023-04-11T05:52:57.436Z,49.70
2023-04-11T05:55:25.824Z,49.30
2023-04-11T05:57:59.623Z,49.16
2023-04-11T06:00:31.184Z,49.19
2023-04-11T06:03:09.859Z,49.36
2023-04-11T06:05:40.736Z,49.27
2023-04-11T06:08:12.136Z,48.65
2023-04-11T06:10:40.311Z,48.49
2023-04-11T06:13:09.249Z,48.30
2023-04-11T06:15:38.271Z,48.22
2023-04-11T06:18:06.410Z,48.37
2023-04-11T06:20:36.944Z,48.31
2023-04-11T06:23:07.987Z,48.48
2023-04-11T06:25:36.283Z,48.01
2023-04-11T06:28:04.543Z,47.93
2023-04-11T06:30:33.327Z,48.16
2023-04-11T06:33:01.856Z,48.44
2023-04-11T06:35:30.301Z,48.31
2023-04-11T06:37:58.686Z,48.31
2023-04-11T06:40:29.952Z,48.49
2023-04-11T06:43:00.364Z,48.24
2023-04-11T06:45:28.689Z,48.11
2023-04-11T06:47:56.813Z,47.64
2023-04-11T06:50:25.078Z,47.20
2023-04-11T06:52:55.831Z,47.13
2023-04-11T06:55:24.065Z,47.19
2023-04-11T06:57:52.421Z,47.12
2023-04-11T07:00:21.468Z,46.54
2023-04-11T07:02:51.591Z,46.36
2023-04-11T07:05:20.065Z,46.26
2023-04-11T07:07:49.975Z,45.80
2023-04-11T07:10:18.974Z,46.20
2023-04-11T07:12:47.113Z,46.15
2023-04-11T07:15:17.364Z,45.86
2023-04-11T07:17:50.263Z,44.40
2023-04-11T07:20:19.868Z,44.05
2023-04-11T07:22:48.559Z,43.94
2023-04-11T07:25:22.775Z,43.89
2023-04-11T07:27:51.691Z,44.15
2023-04-11T07:30:21.875Z,43.61
2023-04-11T07:32:51.741Z,43.87
2023-04-11T07:35:20.475Z,44.38
2023-04-11T07:37:49.468Z,44.52
2023-04-11T07:40:18.162Z,44.64
2023-04-11T07:42:46.942Z,44.75
2023-04-11T07:45:15.221Z,44.44
2023-04-11T07:47:44.393Z,44.05
2023-04-11T07:50:12.807Z,43.68
2023-04-11T07:52:41.379Z,43.54
2023-04-11T07:55:10.374Z,43.46
2023-04-11T07:57:38.498Z,43.56
2023-04-11T08:00:11.594Z,43.58
2023-04-11T08:02:44.368Z,43.79
2023-04-11T08:05:13.003Z,43.64
2023-04-11T08:07:48.654Z,43.69
2023-04-11T08:10:17.812Z,43.46
2023-04-11T08:12:45.979Z,43.50
2023-04-11T08:15:17.322Z,43.47
2023-04-11T08:17:46.844Z,43.04
2023-04-11T08:20:15.670Z,43.20
2023-04-11T08:22:47.127Z,42.55
2023-04-11T08:25:15.504Z,43.05
2023-04-11T08:27:44.188Z,42.55
2023-04-11T08:30:17.174Z,42.99
2023-04-11T08:32:46.741Z,43.28
2023-04-11T08:35:14.954Z,43.10
2023-04-11T08:37:44.638Z,42.86
2023-04-11T08:40:12.947Z,42.92
2023-04-11T08:42:42.046Z,43.09
2023-04-11T08:45:11.044Z,43.01
2023-04-11T08:47:39.196Z,42.95
2023-04-11T08:50:08.711Z,42.64
2023-04-11T08:52:37.811Z,42.67
2023-04-11T08:55:06.236Z,42.73
2023-04-11T08:57:35.109Z,42.67
2023-04-11T09:00:25.006Z,42.55
2023-04-11T09:14:16.085Z,42.74
2023-04-11T09:17:01.754Z,42.03
2023-04-11T09:19:31.932Z,41.79
2023-04-11T09:22:02.467Z,41.46
2023-04-11T09:24:32.046Z,41.17
2023-04-11T09:27:15.982Z,41.15
2023-04-11T09:29:48.250Z,40.90
2023-04-11T09:32:35.215Z,41.15
2023-04-11T09:35:25.727Z,41.16
2023-04-11T09:37:55.485Z,41.32
2023-04-11T09:40:25.959Z,41.42
2023-04-11T09:42:58.718Z,41.47
2023-04-11T09:45:27.745Z,41.37
2023-04-11T09:47:56.971Z,41.72
2023-04-11T09:50:26.037Z,41.81
2023-04-11T09:52:57.763Z,41.81
2023-04-11T09:55:27.720Z,41.86
2023-04-11T09:57:56.133Z,41.65
2023-04-11T10:00:29.478Z,41.75
2023-04-11T10:02:58.209Z,41.69
2023-04-11T10:05:27.759Z,41.51
2023-04-11T10:08:06.495Z,41.60
2023-04-11T10:10:36.209Z,41.81
2023-04-11T10:13:37.670Z,42.19
2023-04-11T10:16:09.355Z,41.78
2023-04-11T10:18:54.403Z,41.80
2023-04-11T10:21:32.943Z,41.79
2023-04-11T10:24:21.354Z,41.21
2023-04-11T10:26:57.964Z,40.82
2023-04-11T10:29:41.153Z,40.79
2023-04-11T10:32:13.096Z,40.60
2023-04-11T10:35:16.627Z,40.06
2023-04-11T10:37:44.692Z,40.12
2023-04-11T10:40:13.711Z,39.86
2023-04-11T10:42:44.878Z,40.07
2023-04-11T10:45:24.641Z,40.22
2023-04-11T10:47:58.889Z,40.21
2023-04-11T10:50:27.599Z,39.90
2023-04-11T10:52:57.298Z,39.54
2023-04-11T10:55:30.565Z,38.72
2023-04-11T10:58:09.459Z,38.95
2023-04-11T11:00:46.704Z,39.10
2023-04-11T11:03:24.310Z,39.44
2023-04-11T11:06:08.570Z,38.77
2023-04-11T11:08:38.182Z,38.39
2023-04-11T11:11:07.033Z,37.70
2023-04-11T11:13:42.384Z,36.96
2023-04-11T11:16:14.364Z,37.11
2023-04-11T11:18:53.184Z,37.09
2023-04-11T11:21:28.837Z,37.02
2023-04-11T11:23:57.344Z,37.17
2023-04-11T11:26:41.576Z,37.05
2023-04-11T11:29:10.392Z,37.33
2023-04-11T11:31:42.715Z,37.25
2023-04-11T11:34:23.065Z,36.89
2023-04-11T11:36:53.579Z,36.65
2023-04-11T11:39:23.279Z,36.88
2023-04-11T11:41:52.308Z,37.21
2023-04-11T11:44:22.557Z,37.14
2023-04-11T11:47:09.544Z,36.76
2023-04-11T11:49:48.498Z,36.70
2023-04-11T11:52:36.727Z,36.18
2023-04-11T11:55:10.432Z,35.98
2023-04-11T11:57:49.356Z,35.84
2023-04-11T12:00:24.700Z,35.86
2023-04-11T12:02:56.441Z,35.62
2023-04-11T12:05:25.428Z,34.81
2023-04-11T12:07:55.052Z,35.04
2023-04-11T12:10:23.375Z,35.57
2023-04-11T12:12:53.112Z,35.68
2023-04-11T12:15:24.102Z,35.87
2023-04-11T12:17:52.785Z,35.90
2023-04-11T12:20:24.802Z,36.20
2023-04-11T12:22:54.847Z,35.73
2023-04-11T12:25:28.680Z,35.62
2023-04-11T12:27:57.345Z,35.15
2023-04-11T12:30:27.224Z,34.70
2023-04-11T12:33:01.035Z,34.75
2023-04-11T12:35:30.264Z,34.50
2023-04-11T12:38:08.074Z,34.37
2023-04-11T12:40:37.469Z,34.21
2023-04-11T12:43:06.054Z,33.45
2023-04-11T12:45:37.919Z,32.83
2023-04-11T12:48:08.187Z,32.69
2023-04-11T12:50:36.496Z,32.44
2023-04-11T12:53:04.790Z,32.56
2023-04-11T12:55:36.707Z,31.92
2023-04-11T12:58:09.650Z,31.64
2023-04-11T13:00:37.751Z,31.69
2023-04-11T13:03:16.411Z,31.50
2023-04-11T13:05:46.676Z,31.75
2023-04-11T13:08:15.560Z,31.24
2023-04-11T13:10:43.871Z,30.78
2023-04-11T13:15:46.728Z,30.97
2023-04-11T13:18:15.010Z,31.36
2023-04-11T13:20:46.178Z,30.98
2023-04-11T13:23:16.657Z,31.16
2023-04-11T13:25:48.878Z,31.24
2023-04-11T13:28:18.398Z,31.26
2023-04-11T13:30:46.942Z,31.39
2023-04-11T13:33:16.550Z,30.64
2023-04-11T13:35:45.436Z,29.83
2023-04-11T13:38:16.681Z,28.41
2023-04-11T13:40:45.709Z,27.63
2023-04-11T13:43:15.694Z,27.12
2023-04-11T13:45:44.002Z,27.29
2023-04-11T13:48:15.116Z,26.99
2023-04-11T13:50:43.402Z,27.56
2023-04-11T13:53:11.873Z,28.37
2023-04-11T13:55:40.258Z,28.89
2023-04-11T13:58:08.393Z,28.77
2023-04-11T14:00:39.169Z,29.26
2023-04-11T14:03:08.116Z,29.64
2023-04-11T14:05:36.950Z,29.98
2023-04-11T14:08:10.804Z,30.37
2023-04-11T14:10:39.132Z,30.50
2023-04-11T14:13:11.631Z,30.85
2023-04-11T14:15:41.073Z,31.35
2023-04-11T14:18:09.269Z,31.59
2023-04-11T14:20:38.689Z,31.82
2023-04-11T14:23:07.686Z,32.11
2023-04-11T14:25:36.225Z,32.35
2023-04-11T14:28:05.203Z,32.48
2023-04-11T14:30:34.165Z,32.09
2023-04-11T14:33:03.106Z,32.04
2023-04-11T14:35:31.886Z,32.28
2023-04-11T14:38:01.250Z,32.17
2023-04-11T14:40:29.617Z,32.10
2023-04-11T14:42:58.796Z,31.93
2023-04-11T14:45:29.862Z,31.81
2023-04-11T14:47:58.233Z,32.02
2023-04-11T14:50:27.158Z,32.39
2023-04-11T14:52:57.379Z,32.70
2023-04-11T14:55:26.244Z,32.98
2023-04-11T14:58:00.873Z,32.94
2023-04-11T15:00:29.527Z,32.99
2023-04-11T15:02:58.181Z,33.35
2023-04-11T15:05:27.014Z,33.52
2023-04-11T15:07:57.137Z,33.60
2023-04-11T15:10:25.424Z,34.01
2023-04-11T15:12:54.047Z,34.35
2023-04-11T15:15:23.308Z,34.56
2023-04-11T15:18:25.269Z,34.72
2023-04-11T15:20:54.099Z,34.98
2023-04-11T15:23:29.105Z,35.27
2023-04-11T15:26:01.577Z,35.72
2023-04-11T15:28:38.048Z,35.71
2023-04-11T15:31:08.038Z,35.77
2023-04-11T15:33:36.912Z,35.97
2023-04-11T15:36:08.146Z,36.00
2023-04-11T15:38:37.041Z,36.07
2023-04-11T15:41:07.610Z,36.15
2023-04-11T15:43:37.613Z,36.15
2023-04-11T15:46:10.347Z,36.22
2023-04-11T15:48:41.232Z,36.47
2023-04-11T15:51:11.105Z,36.65
2023-04-11T15:53:40.291Z,36.81
2023-04-11T15:56:08.982Z,37.09
2023-04-11T15:58:37.942Z,37.42
2023-04-11T16:01:23.095Z,37.41
2023-04-11T16:03:58.149Z,37.51
2023-04-11T16:06:27.663Z,37.76
2023-04-11T16:08:56.236Z,37.72
2023-04-11T16:11:29.122Z,37.91
2023-04-11T16:13:58.212Z,38.10
2023-04-11T16:16:35.078Z,38.08
2023-04-11T16:19:04.128Z,37.97
2023-04-11T16:21:32.598Z,38.24
2023-04-11T16:24:01.681Z,38.57
2023-04-11T16:26:30.386Z,38.86
2023-04-11T16:28:58.810Z,38.96
2023-04-11T16:31:27.892Z,39.27
2023-04-11T16:33:56.836Z,39.27
2023-04-11T16:36:27.312Z,39.04
2023-04-11T16:38:55.512Z,38.97
2023-04-11T16:41:24.013Z,39.17
2023-04-11T16:43:53.758Z,38.82
2023-04-11T16:46:22.480Z,38.91
2023-04-11T16:48:54.782Z,38.85
2023-04-11T16:51:23.295Z,38.66
2023-04-11T16:53:53.365Z,38.96
2023-04-11T16:56:21.867Z,38.85
2023-04-11T16:58:50.230Z,38.82
2023-04-11T17:01:19.386Z,39.04
2023-04-11T17:03:52.336Z,39.25
2023-04-11T17:06:20.753Z,39.45
2023-04-11T17:08:49.111Z,39.62
2023-04-11T17:11:17.568Z,39.59
2023-04-11T17:13:46.460Z,39.56
2023-04-11T17:16:17.089Z,39.75
2023-04-11T17:18:45.471Z,39.79
2023-04-11T17:21:18.639Z,39.95
2023-04-11T17:23:47.228Z,40.11
2023-04-11T17:26:16.965Z,40.36
2023-04-11T17:28:47.147Z,40.52
2023-04-11T17:31:16.363Z,40.74
2023-04-11T17:33:44.959Z,40.83
2023-04-11T17:36:13.407Z,40.99
2023-04-11T17:38:43.734Z,40.98
2023-04-11T17:41:14.856Z,41.11
2023-04-11T17:43:44.351Z,41.10
2023-04-11T17:46:13.836Z,40.95
2023-04-11T17:48:42.813Z,40.91
2023-04-11T17:51:10.986Z,41.03
2023-04-11T17:53:44.341Z,41.10
2023-04-11T17:56:14.607Z,41.00
2023-04-11T17:58:45.047Z,40.72
2023-04-11T18:01:14.213Z,40.92
2023-04-11T18:03:44.182Z,41.10
2023-04-11T18:06:12.605Z,41.20
2023-04-11T18:11:14.415Z,40.91
2023-04-11T18:13:43.910Z,41.15
2023-04-11T18:16:15.780Z,41.24
2023-04-11T18:18:44.255Z,41.17
2023-04-11T18:21:12.890Z,41.21
2023-04-11T18:23:42.556Z,40.97
2023-04-11T18:26:11.362Z,40.89
2023-04-11T18:28:40.776Z,41.08
2023-04-11T18:31:10.010Z,41.04
2023-04-11T18:33:42.870Z,40.95
2023-04-11T18:36:18.156Z,41.11
2023-04-11T18:38:47.825Z,41.34
2023-04-11T18:41:18.157Z,41.50
2023-04-11T18:43:47.642Z,41.55
2023-04-11T18:46:16.421Z,41.65
2023-04-11T18:48:45.425Z,41.67
2023-04-11T18:51:13.872Z,41.80
2023-04-11T18:53:42.149Z,41.97
2023-04-11T18:56:11.857Z,42.21
2023-04-11T18:58:45.523Z,42.14
2023-04-11T19:01:17.280Z,42.17
2023-04-11T19:03:47.893Z,42.11
2023-04-11T19:06:17.255Z,42.14
2023-04-11T19:08:45.633Z,42.34
2023-04-11T19:11:13.902Z,42.77
2023-04-11T19:13:42.129Z,43.17
2023-04-11T19:16:12.266Z,43.40
2023-04-11T19:18:41.294Z,43.16
2023-04-11T19:21:09.672Z,43.40
2023-04-11T19:23:39.792Z,43.54
2023-04-11T19:26:08.775Z,43.59
2023-04-11T19:28:37.883Z,43.87
2023-04-11T19:31:08.526Z,44.24
2023-04-11T19:33:39.093Z,44.55
2023-04-11T19:36:07.764Z,44.39
2023-04-11T19:38:36.315Z,44.25
2023-04-11T19:41:12.468Z,44.35
2023-04-11T19:43:43.005Z,44.24
2023-04-11T19:46:12.612Z,44.54
2023-04-11T19:48:41.397Z,43.30
2023-04-11T19:51:11.582Z,41.88
2023-04-11T19:53:40.196Z,41.35
2023-04-11T19:56:12.386Z,41.41
2023-04-11T19:58:42.924Z,41.16
2023-04-11T20:01:11.408Z,41.35
2023-04-11T20:03:41.875Z,41.32
2023-04-11T20:06:12.695Z,41.56
2023-04-11T20:08:41.051Z,41.75
2023-04-11T20:11:16.599Z,41.93
2023-04-11T20:13:44.759Z,42.33
2023-04-11T20:16:13.272Z,42.60
2023-04-11T20:18:44.252Z,42.43
2023-04-11T20:21:12.614Z,42.39
2023-04-11T20:23:42.295Z,42.65
2023-04-11T20:26:11.057Z,43.40
2023-04-11T20:28:39.655Z,43.87
2023-04-11T20:31:07.888Z,44.15
2023-04-11T20:33:37.128Z,44.27
2023-04-11T20:36:07.840Z,44.31
2023-04-11T20:38:37.161Z,44.67
2023-04-11T20:41:06.434Z,45.29
2023-04-11T20:43:41.754Z,45.73
2023-04-11T20:46:09.924Z,46.05
2023-04-11T20:48:38.349Z,46.35
2023-04-11T20:51:08.631Z,46.96
2023-04-11T20:53:36.861Z,47.46
2023-04-11T20:56:06.102Z,48.01
2023-04-11T20:58:34.421Z,48.52
2023-04-11T21:01:03.167Z,48.72
2023-04-11T21:03:37.794Z,48.89
2023-04-11T21:06:07.589Z,49.16
2023-04-11T21:08:38.174Z,49.27
2023-04-11T21:11:07.479Z,49.79
2023-04-11T21:13:36.170Z,50.01
2023-04-11T21:16:04.884Z,50.16
2023-04-11T21:32:12.561Z,50.06
2023-04-11T21:34:41.539Z,49.34
2023-04-11T21:37:10.635Z,49.45
2023-04-11T21:39:38.769Z,49.53
2023-04-11T21:42:09.029Z,49.86
2023-04-11T21:44:37.756Z,50.13
2023-04-11T21:47:06.053Z,50.65
2023-04-11T21:49:34.324Z,50.56
2023-04-11T21:52:06.859Z,50.78
2023-04-11T21:54:36.802Z,50.82
2023-04-11T21:57:05.247Z,51.32
2023-04-11T21:59:35.164Z,51.91
2023-04-11T22:02:03.675Z,52.59
2023-04-11T22:04:39.056Z,53.13
2023-04-11T22:07:15.820Z,53.15
2023-04-11T22:09:47.218Z,53.64
2023-04-11T22:12:17.805Z,53.42
2023-04-11T22:14:52.846Z,53.25
2023-04-11T22:17:22.799Z,53.53
2023-04-11T22:19:50.967Z,53.73
2023-04-11T22:22:20.585Z,53.80
2023-04-11T22:24:51.004Z,53.76
2023-04-11T22:27:19.690Z,53.88
2023-04-11T22:29:49.405Z,53.93
2023-04-11T22:32:18.394Z,53.54
2023-04-11T22:34:46.773Z,53.51
2023-04-11T22:37:15.131Z,53.71
2023-04-11T22:39:43.655Z,53.87
2023-04-11T22:42:12.698Z,54.00
2023-04-11T22:44:41.007Z,54.05
2023-04-11T22:47:16.883Z,54.32
2023-04-11T22:49:45.997Z,54.57
2023-04-11T22:52:15.235Z,54.79
2023-04-11T22:54:45.993Z,55.05
2023-04-11T22:57:14.279Z,55.43
2023-04-11T22:59:42.611Z,55.86
2023-04-11T23:02:10.922Z,55.91
2023-04-11T23:04:39.094Z,55.93
2023-04-11T23:07:07.277Z,55.93
2023-04-11T23:09:35.767Z,55.89
2023-04-11T23:12:11.708Z,56.06
2023-04-11T23:14:42.748Z,56.09
2023-04-11T23:17:12.580Z,56.26
2023-04-11T23:19:42.583Z,56.49
2023-04-11T23:22:11.062Z,56.83
2023-04-11T23:24:40.273Z,57.25
2023-04-11T23:27:08.552Z,57.51
2023-04-11T23:29:39.276Z,57.61
2023-04-11T23:32:07.754Z,57.80
2023-04-11T23:34:38.540Z,57.88
2023-04-11T23:37:08.080Z,57.89
2023-04-11T23:39:36.681Z,58.17
2023-04-11T23:42:07.616Z,58.33
2023-04-11T23:44:36.021Z,58.48
2023-04-11T23:47:08.377Z,58.70
2023-04-11T23:49:37.346Z,59.01
2023-04-11T23:52:05.946Z,59.21
2023-04-11T23:54:36.884Z,59.30
2023-04-11T23:57:06.284Z,59.33
2023-04-11T23:59:35.182Z,59.55
